createdAt,value
2023-01-01T00:00:07.751Z,0
2023-01-01T00:01:24.043Z,0
2023-01-01T00:02:40.329Z,0
2023-01-01T00:03:56.628Z,0
2023-01-01T00:05:12.916Z,0
2023-01-01T00:06:29.216Z,0
2023-01-01T00:07:45.520Z,0
2023-01-01T00:09:01.815Z,0
2023-01-01T00:10:18.053Z,1
2023-01-01T00:11:33.377Z,0
2023-01-01T00:12:49.658Z,0
2023-01-01T00:14:05.949Z,0
2023-01-01T00:15:22.256Z,0
2023-01-01T00:16:38.541Z,0
2023-01-01T00:17:54.837Z,0
2023-01-01T00:19:11.142Z,0
2023-01-01T00:20:27.430Z,0
2023-01-01T00:21:43.720Z,0
2023-01-01T00:23:00.006Z,0
2023-01-01T00:24:16.305Z,0
2023-01-01T00:25:32.605Z,0
2023-01-01T00:26:48.895Z,0
2023-01-01T00:28:05.191Z,0
2023-01-01T00:29:20.507Z,0
2023-01-01T00:30:36.794Z,0
2023-01-01T00:31:53.083Z,0
2023-01-01T00:33:09.000Z,0
2023-01-01T00:34:25.680Z,0
2023-01-01T00:35:41.977Z,0
2023-01-01T00:36:58.255Z,0
2023-01-01T00:38:14.552Z,0
2023-01-01T00:39:30.857Z,0
2023-01-01T00:40:47.137Z,0
2023-01-01T00:42:03.438Z,0
2023-01-01T00:43:19.724Z,0
2023-01-01T00:44:36.026Z,0
2023-01-01T00:45:51.342Z,0
2023-01-01T00:47:07.636Z,0
2023-01-01T00:48:23.930Z,0
2023-01-01T00:49:40.224Z,0
2023-01-01T00:50:56.521Z,0
2023-01-01T00:52:12.810Z,0
2023-01-01T00:53:29.094Z,0
2023-01-01T00:54:45.403Z,0
2023-01-01T00:56:01.683Z,0
2023-01-01T00:57:17.971Z,0
2023-01-01T00:58:34.270Z,0
2023-01-01T00:59:50.574Z,0
2023-01-01T01:01:06.871Z,0
2023-01-01T01:02:22.165Z,0
2023-01-01T01:03:38.464Z,0
2023-01-01T01:04:54.770Z,0
2023-01-01T01:06:11.046Z,0
2023-01-01T01:07:27.340Z,0
2023-01-01T01:08:42.671Z,0
2023-01-01T01:09:58.960Z,0
2023-01-01T01:11:15.260Z,0
2023-01-01T01:12:31.550Z,0
2023-01-01T01:13:47.832Z,0
2023-01-01T01:15:04.122Z,0
2023-01-01T01:16:20.433Z,0
2023-01-01T01:17:36.721Z,0
2023-01-01T01:18:53.014Z,0
2023-01-01T01:20:09.302Z,0
2023-01-01T01:21:25.612Z,0
2023-01-01T01:22:41.898Z,0
2023-01-01T01:23:58.183Z,0
2023-01-01T01:25:13.502Z,0
2023-01-01T01:26:29.795Z,0
2023-01-01T01:27:46.082Z,0
2023-01-01T01:29:02.392Z,0
2023-01-01T01:30:18.684Z,0
2023-01-01T01:31:34.965Z,0
2023-01-01T01:32:51.255Z,0
2023-01-01T01:34:07.557Z,0
2023-01-01T01:35:23.844Z,0
2023-01-01T01:36:40.140Z,0
2023-01-01T01:37:56.442Z,0
2023-01-01T01:39:12.740Z,0
2023-01-01T01:40:29.035Z,0
2023-01-01T01:41:44.345Z,0
2023-01-01T01:43:00.626Z,0
2023-01-01T01:44:16.930Z,0
2023-01-01T01:45:33.219Z,0
2023-01-01T01:46:49.506Z,0
2023-01-01T01:48:05.801Z,0
2023-01-01T01:49:22.090Z,0
2023-01-01T01:50:38.390Z,0
2023-01-01T01:51:54.685Z,0
2023-01-01T01:53:10.985Z,0
2023-01-01T01:54:27.272Z,0
2023-01-01T01:55:43.569Z,0
2023-01-01T01:56:59.857Z,0
2023-01-01T01:58:15.167Z,0
2023-01-01T01:59:31.463Z,0
2023-01-01T02:00:47.758Z,0
2023-01-01T02:02:04.061Z,0
2023-01-01T02:04:36.646Z,0
2023-01-01T02:05:52.000Z,0
2023-01-01T02:07:09.236Z,0
2023-01-01T02:08:25.519Z,0
2023-01-01T02:09:41.822Z,0
2023-01-01T02:10:58.104Z,0
2023-01-01T02:12:14.401Z,0
2023-01-01T02:13:30.705Z,0
2023-01-01T02:14:46.001Z,0
2023-01-01T02:16:02.292Z,0
2023-01-01T02:17:18.599Z,0
2023-01-01T02:18:34.895Z,0
2023-01-01T02:19:51.180Z,0
2023-01-01T02:21:07.472Z,0
2023-01-01T02:22:23.767Z,0
2023-01-01T02:23:40.056Z,0
2023-01-01T02:24:56.353Z,0
2023-01-01T02:26:12.653Z,0
2023-01-01T02:27:28.951Z,0
2023-01-01T02:28:45.236Z,0
2023-01-01T02:30:01.542Z,0
2023-01-01T02:31:16.837Z,0
2023-01-01T02:32:33.130Z,0
2023-01-01T02:33:49.443Z,0
2023-01-01T02:36:22.017Z,0
2023-01-01T02:37:38.311Z,0
2023-01-01T02:38:54.609Z,0
2023-01-01T02:40:10.907Z,0
2023-01-01T02:41:27.184Z,0
2023-01-01T02:42:43.488Z,0
2023-01-01T02:46:32.366Z,0
2023-01-01T02:47:47.673Z,0
2023-01-01T02:49:03.975Z,0
2023-01-01T02:50:20.267Z,0
2023-01-01T02:51:36.573Z,0
2023-01-01T02:52:52.863Z,0
2023-01-01T02:54:09.143Z,0
2023-01-01T02:55:25.441Z,0
2023-01-01T02:56:41.742Z,0
2023-01-01T02:57:58.028Z,0
2023-01-01T02:59:14.322Z,0
2023-01-01T03:00:30.624Z,0
2023-01-01T03:01:46.909Z,0
2023-01-01T03:03:03.214Z,0
2023-01-01T03:04:18.507Z,0
2023-01-01T03:05:34.805Z,0
2023-01-01T03:06:51.113Z,0
2023-01-01T03:08:07.407Z,0
2023-01-01T03:09:23.690Z,0
2023-01-01T03:10:39.993Z,0
2023-01-01T03:11:56.289Z,0
2023-01-01T03:13:12.582Z,0
2023-01-01T03:14:28.870Z,0
2023-01-01T03:15:45.165Z,0
2023-01-01T03:17:01.458Z,0
2023-01-01T03:18:17.757Z,0
2023-01-01T03:19:34.040Z,0
2023-01-01T03:20:49.353Z,0
2023-01-01T03:22:05.655Z,0
2023-01-01T03:23:21.941Z,0
2023-01-01T03:24:38.226Z,0
2023-01-01T03:25:54.538Z,0
2023-01-01T03:27:10.827Z,0
2023-01-01T03:28:27.118Z,0
2023-01-01T03:29:43.410Z,0
2023-01-01T03:30:59.695Z,0
2023-01-01T03:32:15.993Z,0
2023-01-01T03:33:32.287Z,0
2023-01-01T03:34:48.590Z,0
2023-01-01T03:36:04.881Z,0
2023-01-01T03:37:20.184Z,0
2023-01-01T03:38:36.482Z,0
2023-01-01T03:39:52.774Z,0
2023-01-01T03:41:09.063Z,0
2023-01-01T03:42:25.371Z,0
2023-01-01T03:43:41.659Z,0
2023-01-01T03:44:57.948Z,0
2023-01-01T03:46:14.243Z,0
2023-01-01T03:47:30.546Z,0
2023-01-01T03:48:46.829Z,0
2023-01-01T03:50:03.130Z,0
2023-01-01T03:51:19.421Z,0
2023-01-01T03:52:35.710Z,0
2023-01-01T03:53:51.036Z,0
2023-01-01T03:55:07.311Z,0
2023-01-01T03:56:23.621Z,0
2023-01-01T03:57:39.907Z,0
2023-01-01T03:58:56.210Z,0
2023-01-01T04:00:12.500Z,0
2023-01-01T04:01:28.781Z,0
2023-01-01T04:02:45.085Z,0
2023-01-01T04:04:01.385Z,0
2023-01-01T04:05:17.663Z,0
2023-01-01T04:06:33.976Z,0
2023-01-01T04:09:06.552Z,0
2023-01-01T04:10:21.853Z,0
2023-01-01T04:11:38.153Z,0
2023-01-01T04:12:54.441Z,0
2023-01-01T04:14:10.738Z,0
2023-01-01T04:15:27.049Z,0
2023-01-01T04:16:43.335Z,0
2023-01-01T04:17:59.625Z,0
2023-01-01T04:19:15.930Z,0
2023-01-01T04:20:32.208Z,0
2023-01-01T04:21:48.513Z,0
2023-01-01T04:23:04.807Z,0
2023-01-01T04:24:21.099Z,0
2023-01-01T04:25:37.397Z,0
2023-01-01T04:26:52.710Z,0
2023-01-01T04:28:08.997Z,0
2023-01-01T04:29:25.289Z,0
2023-01-01T04:31:57.870Z,0
2023-01-01T04:33:14.172Z,0
2023-01-01T04:34:30.470Z,0
2023-01-01T04:35:46.758Z,0
2023-01-01T04:37:03.057Z,0
2023-01-01T04:38:19.343Z,0
2023-01-01T04:39:35.632Z,0
2023-01-01T04:40:51.930Z,0
2023-01-01T04:42:08.231Z,0
2023-01-01T04:43:23.532Z,0
2023-01-01T04:44:39.842Z,0
2023-01-01T04:45:56.118Z,0
2023-01-01T04:47:12.430Z,0
2023-01-01T04:48:28.723Z,0
2023-01-01T04:49:44.998Z,0
2023-01-01T04:51:01.298Z,0
2023-01-01T04:52:17.601Z,0
2023-01-01T04:53:33.897Z,0
2023-01-01T04:54:50.186Z,0
2023-01-01T04:56:06.476Z,0
2023-01-01T04:57:22.771Z,0
2023-01-01T04:58:39.056Z,0
2023-01-01T04:59:54.379Z,0
2023-01-01T05:01:10.661Z,0
2023-01-01T05:02:26.965Z,0
2023-01-01T05:03:43.251Z,0
2023-01-01T05:04:59.548Z,0
2023-01-01T05:06:15.841Z,0
2023-01-01T05:07:32.136Z,0
2023-01-01T05:08:48.438Z,0
2023-01-01T05:10:04.727Z,0
2023-01-01T05:11:21.025Z,0
2023-01-01T05:12:37.310Z,0
2023-01-01T05:13:53.613Z,0
2023-01-01T05:15:09.900Z,0
2023-01-01T05:16:25.222Z,0
2023-01-01T05:17:41.512Z,0
2023-01-01T05:18:57.792Z,0
2023-01-01T05:21:30.396Z,0
2023-01-01T05:22:46.686Z,0
2023-01-01T05:24:01.998Z,0
2023-01-01T05:25:18.286Z,0
2023-01-01T05:26:34.593Z,0
2023-01-01T05:27:50.879Z,0
2023-01-01T05:29:07.175Z,0
2023-01-01T05:30:23.469Z,0
2023-01-01T05:31:39.748Z,0
2023-01-01T05:32:56.037Z,0
2023-01-01T05:34:12.340Z,0
2023-01-01T05:35:28.644Z,0
2023-01-01T05:36:44.924Z,0
2023-01-01T05:38:01.220Z,0
2023-01-01T05:39:17.514Z,0
2023-01-01T05:40:33.809Z,0
2023-01-01T05:41:49.124Z,0
2023-01-01T05:43:05.420Z,0
2023-01-01T05:44:21.699Z,0
2023-01-01T05:45:38.008Z,0
2023-01-01T05:46:54.305Z,0
2023-01-01T05:48:10.588Z,0
2023-01-01T05:49:26.895Z,0
2023-01-01T05:50:43.171Z,0
2023-01-01T05:51:59.464Z,0
2023-01-01T05:53:15.761Z,0
2023-01-01T05:54:32.054Z,0
2023-01-01T05:55:48.352Z,0
2023-01-01T05:57:04.640Z,0
2023-01-01T05:58:20.933Z,0
2023-01-01T05:59:36.259Z,0
2023-01-01T06:00:52.000Z,0
2023-01-01T06:02:08.842Z,0
2023-01-01T06:03:25.127Z,0
2023-01-01T06:04:41.431Z,0
2023-01-01T06:05:57.721Z,0
2023-01-01T06:07:14.007Z,0
2023-01-01T06:08:30.311Z,0
2023-01-01T06:09:46.610Z,0
2023-01-01T06:11:02.904Z,0
2023-01-01T06:12:19.203Z,0
2023-01-01T06:13:35.491Z,0
2023-01-01T06:14:51.789Z,0
2023-01-01T06:16:07.087Z,0
2023-01-01T06:17:23.387Z,0
2023-01-01T06:18:39.682Z,0
2023-01-01T06:19:55.980Z,0
2023-01-01T06:21:12.267Z,0
2023-01-01T06:22:28.555Z,0
2023-01-01T06:23:44.847Z,0
2023-01-01T06:25:01.148Z,0
2023-01-01T06:26:17.451Z,0
2023-01-01T06:27:33.726Z,0
2023-01-01T06:28:50.030Z,0
2023-01-01T06:30:06.333Z,0
2023-01-01T06:31:22.622Z,0
2023-01-01T06:32:37.933Z,0
2023-01-01T06:33:54.215Z,0
2023-01-01T06:35:10.465Z,1
2023-01-01T06:36:26.748Z,0
2023-01-01T06:37:43.045Z,0
2023-01-01T06:38:59.305Z,1
2023-01-01T06:40:15.535Z,1
2023-01-01T06:42:48.082Z,0
2023-01-01T06:44:04.375Z,0
2023-01-01T06:45:20.625Z,2
2023-01-01T06:46:36.859Z,2
2023-01-01T06:47:53.108Z,3
2023-01-01T06:49:08.367Z,3
2023-01-01T06:50:24.599Z,4
2023-01-01T06:51:40.830Z,4
2023-01-01T06:52:57.080Z,5
2023-01-01T06:54:13.311Z,10
2023-01-01T06:55:29.561Z,10
2023-01-01T06:58:02.036Z,11
2023-01-01T06:59:18.281Z,16
2023-01-01T07:00:34.526Z,20
2023-01-01T07:01:50.750Z,24
2023-01-01T07:03:07.001Z,26
2023-01-01T07:04:23.228Z,31
2023-01-01T07:05:38.503Z,36
2023-01-01T07:06:54.729Z,42
2023-01-01T07:08:10.975Z,45
2023-01-01T07:09:27.211Z,50
2023-01-01T07:10:43.451Z,58
2023-01-01T07:11:59.686Z,65
2023-01-01T07:13:15.933Z,70
2023-01-01T07:14:32.178Z,82
2023-01-01T07:15:48.422Z,93
2023-01-01T07:17:04.655Z,101
2023-01-01T07:18:20.902Z,115
2023-01-01T07:19:37.135Z,126
2023-01-01T07:20:53.379Z,144
2023-01-01T07:22:08.621Z,159
2023-01-01T07:23:24.860Z,171
2023-01-01T07:24:41.118Z,194
2023-01-01T07:25:57.359Z,210
2023-01-01T07:27:13.595Z,230
2023-01-01T07:28:29.824Z,246
2023-01-01T07:29:46.061Z,264
2023-01-01T07:31:02.300Z,280
2023-01-01T07:32:18.549Z,298
2023-01-01T07:33:34.795Z,313
2023-01-01T07:34:51.032Z,330
2023-01-01T07:36:07.258Z,346
2023-01-01T07:37:23.518Z,358
2023-01-01T07:38:38.758Z,367
2023-01-01T07:39:55.011Z,382
2023-01-01T07:41:11.245Z,400
2023-01-01T07:42:27.480Z,421
2023-01-01T07:43:43.731Z,439
2023-01-01T07:44:59.971Z,466
2023-01-01T07:46:16.197Z,490
2023-01-01T07:47:32.436Z,520
2023-01-01T07:48:48.686Z,560
2023-01-01T07:51:21.166Z,622
2023-01-01T07:52:37.412Z,642
2023-01-01T07:53:53.640Z,650
2023-01-01T07:55:08.909Z,666
2023-01-01T07:56:25.139Z,689
2023-01-01T07:57:41.386Z,717
2023-01-01T07:58:57.624Z,747
2023-01-01T08:00:13.862Z,800
2023-01-01T08:01:30.107Z,865
2023-01-01T08:02:46.348Z,917
2023-01-01T08:04:02.584Z,945
2023-01-01T08:05:18.830Z,966
2023-01-01T08:06:35.051Z,993
2023-01-01T08:07:51.294Z,1017
2023-01-01T08:09:07.536Z,1039
2023-01-01T08:10:23.783Z,1069
2023-01-01T08:11:39.032Z,1097
2023-01-01T08:12:55.284Z,1118
2023-01-01T08:14:11.525Z,1133
2023-01-01T08:15:27.757Z,1162
2023-01-01T08:16:44.002Z,1208
2023-01-01T08:18:00.241Z,1260
2023-01-01T08:19:16.475Z,1315
2023-01-01T08:21:48.955Z,1430
2023-01-01T08:23:05.187Z,1472
2023-01-01T08:24:21.429Z,1524
2023-01-01T08:25:37.685Z,1572
2023-01-01T08:26:53.925Z,1572
2023-01-01T08:28:09.166Z,1584
2023-01-01T08:29:25.422Z,1560
2023-01-01T08:30:41.656Z,1545
2023-01-01T08:31:57.886Z,1559
2023-01-01T08:33:14.131Z,1544
2023-01-01T08:34:30.373Z,1561
2023-01-01T08:35:46.620Z,1616
2023-01-01T08:37:02.846Z,1663
2023-01-01T08:38:19.094Z,1681
2023-01-01T08:39:35.322Z,1700
2023-01-01T08:40:51.561Z,1705
2023-01-01T08:42:07.803Z,1711
2023-01-01T08:43:24.058Z,1716
2023-01-01T08:44:39.303Z,1756
2023-01-01T08:45:55.546Z,1809
2023-01-01T08:47:11.779Z,1877
2023-01-01T08:48:28.016Z,1964
2023-01-01T08:49:44.257Z,2037
2023-01-01T08:52:16.749Z,2160
2023-01-01T08:53:32.979Z,2264
2023-01-01T08:54:49.218Z,2352
2023-01-01T08:56:05.457Z,2432
2023-01-01T08:57:21.716Z,2591
2023-01-01T08:58:37.937Z,2689
2023-01-01T08:59:54.193Z,2729
2023-01-01T09:01:09.433Z,2843
2023-01-01T09:02:25.682Z,2830
2023-01-01T09:03:41.917Z,2840
2023-01-01T09:06:14.403Z,2872
2023-01-01T09:07:30.633Z,2832
2023-01-01T09:08:46.881Z,2785
2023-01-01T09:10:03.127Z,2738
2023-01-01T09:11:19.353Z,2761
2023-01-01T09:12:35.593Z,2676
2023-01-01T09:13:51.846Z,2611
2023-01-01T09:15:08.074Z,2554
2023-01-01T09:16:24.322Z,2539
2023-01-01T09:17:39.587Z,2510
2023-01-01T09:18:55.824Z,2548
2023-01-01T09:20:12.045Z,2637
2023-01-01T09:21:28.302Z,2691
2023-01-01T09:22:44.536Z,2754
2023-01-01T09:24:00.765Z,2844
2023-01-01T09:25:17.020Z,2821
2023-01-01T09:26:33.260Z,2811
2023-01-01T09:27:49.503Z,2805
2023-01-01T09:29:05.732Z,2798
2023-01-01T09:30:21.972Z,2863
2023-01-01T09:31:38.222Z,2877
2023-01-01T09:32:54.453Z,2913
2023-01-01T09:34:09.703Z,2921
2023-01-01T09:35:25.960Z,2873
2023-01-01T09:36:42.184Z,2820
2023-01-01T09:37:58.430Z,2806
2023-01-01T09:39:13.696Z,2808
2023-01-01T09:40:29.922Z,2822
2023-01-01T09:41:46.174Z,2842
2023-01-01T09:43:02.419Z,2880
2023-01-01T09:44:18.644Z,2928
2023-01-01T09:45:34.895Z,3004
2023-01-01T09:46:51.122Z,3067
2023-01-01T09:49:23.614Z,3150
2023-01-01T09:50:39.853Z,3164
2023-01-01T09:51:56.091Z,3177
2023-01-01T09:53:12.330Z,3223
2023-01-01T09:54:28.572Z,3269
2023-01-01T09:55:43.820Z,3314
2023-01-01T09:57:00.060Z,3331
2023-01-01T09:58:16.301Z,3302
2023-01-01T09:59:32.542Z,3303
2023-01-01T10:00:48.794Z,3234
2023-01-01T10:02:05.028Z,3164
2023-01-01T10:03:21.267Z,3062
2023-01-01T10:04:37.498Z,2976
2023-01-01T10:05:53.738Z,2908
2023-01-01T10:07:09.987Z,2873
2023-01-01T10:08:26.232Z,2849
2023-01-01T10:09:42.473Z,2885
2023-01-01T10:10:58.711Z,2814
2023-01-01T10:12:13.966Z,2741
2023-01-01T10:13:30.193Z,2728
2023-01-01T10:14:46.443Z,2670
2023-01-01T10:16:02.683Z,2592
2023-01-01T10:17:18.922Z,2543
2023-01-01T10:18:35.170Z,2552
2023-01-01T10:19:51.397Z,2580
2023-01-01T10:21:07.636Z,2608
2023-01-01T10:22:23.884Z,2597
2023-01-01T10:23:40.124Z,2568
2023-01-01T10:24:56.357Z,2528
2023-01-01T10:26:12.596Z,2522
2023-01-01T10:27:28.830Z,2549
2023-01-01T10:28:44.088Z,2633
2023-01-01T10:31:16.582Z,2907
2023-01-01T10:32:32.826Z,3040
2023-01-01T10:33:49.046Z,3149
2023-01-01T10:35:05.304Z,3289
2023-01-01T10:36:21.535Z,3422
2023-01-01T10:37:37.773Z,3511
2023-01-01T10:38:54.025Z,3576
2023-01-01T10:40:10.253Z,3596
2023-01-01T10:41:26.501Z,3572
2023-01-01T10:42:42.729Z,3537
2023-01-01T10:43:58.965Z,3503
2023-01-01T10:45:14.242Z,3444
2023-01-01T10:46:30.474Z,3429
2023-01-01T10:47:46.713Z,3287
2023-01-01T10:49:02.940Z,3186
2023-01-01T10:50:19.183Z,3225
2023-01-01T10:51:35.431Z,3200
2023-01-01T10:52:51.673Z,3146
2023-01-01T10:54:07.903Z,3186
2023-01-01T10:55:24.158Z,3193
2023-01-01T10:56:40.384Z,3261
2023-01-01T10:57:56.638Z,3268
2023-01-01T10:59:12.859Z,3316
2023-01-01T11:00:29.107Z,3320
2023-01-01T11:01:44.361Z,3392
2023-01-01T11:03:00.602Z,3400
2023-01-01T11:04:16.843Z,3404
2023-01-01T11:06:49.324Z,3463
2023-01-01T11:08:05.554Z,3422
2023-01-01T11:09:21.813Z,3440
2023-01-01T11:10:38.038Z,3561
2023-01-01T11:11:54.280Z,3714
2023-01-01T11:13:10.516Z,3783
2023-01-01T11:14:26.766Z,3786
2023-01-01T11:15:43.002Z,3388
2023-01-01T11:16:59.241Z,2930
2023-01-01T11:18:14.506Z,2773
2023-01-01T11:19:30.735Z,2886
2023-01-01T11:20:46.987Z,2702
2023-01-01T11:22:03.215Z,2435
2023-01-01T11:24:35.709Z,2130
2023-01-01T11:25:51.948Z,2074
2023-01-01T11:27:08.173Z,2029
2023-01-01T11:28:24.422Z,2169
2023-01-01T11:29:40.656Z,2292
2023-01-01T11:30:56.909Z,2286
2023-01-01T11:32:13.145Z,2162
2023-01-01T11:33:29.371Z,1988
2023-01-01T11:34:44.625Z,1845
2023-01-01T11:36:00.866Z,1850
2023-01-01T11:38:33.351Z,2232
2023-01-01T11:39:49.583Z,2446
2023-01-01T11:41:05.825Z,2614
2023-01-01T11:42:22.077Z,2773
2023-01-01T11:43:38.313Z,2879
2023-01-01T11:44:54.554Z,2905
2023-01-01T11:46:10.790Z,2897
2023-01-01T11:47:27.027Z,2806
2023-01-01T11:48:43.263Z,2792
2023-01-01T11:49:59.523Z,2852
2023-01-01T11:51:14.766Z,2951
2023-01-01T11:52:31.002Z,3210
2023-01-01T11:55:03.485Z,3483
2023-01-01T11:56:19.725Z,3535
2023-01-01T11:57:35.972Z,3623
2023-01-01T11:58:52.217Z,3637
2023-01-01T12:00:08.438Z,3600
2023-01-01T12:01:24.690Z,3626
2023-01-01T12:02:40.932Z,3677
2023-01-01T12:03:57.161Z,3699
2023-01-01T12:05:13.419Z,3644
2023-01-01T12:06:29.649Z,3580
2023-01-01T12:07:44.900Z,3531
2023-01-01T12:09:01.150Z,3527
2023-01-01T12:10:17.374Z,3560
2023-01-01T12:11:33.628Z,3521
2023-01-01T12:12:49.870Z,3465
2023-01-01T12:14:06.106Z,3439
2023-01-01T12:15:22.350Z,3419
2023-01-01T12:16:38.580Z,3437
2023-01-01T12:17:54.814Z,3417
2023-01-01T12:19:11.062Z,3393
2023-01-01T12:20:27.301Z,3371
2023-01-01T12:21:43.549Z,3371
2023-01-01T12:22:59.776Z,3414
2023-01-01T12:24:15.043Z,3464
2023-01-01T12:25:31.282Z,3491
2023-01-01T12:26:47.516Z,3412
2023-01-01T12:28:03.750Z,3352
2023-01-01T12:29:19.999Z,3294
2023-01-01T12:30:36.247Z,3240
2023-01-01T12:33:08.708Z,3167
2023-01-01T12:34:24.959Z,3127
2023-01-01T12:35:41.200Z,3041
2023-01-01T12:36:57.434Z,2996
2023-01-01T12:38:13.667Z,2993
2023-01-01T12:39:29.920Z,3004
2023-01-01T12:40:45.180Z,3006
2023-01-01T12:42:01.418Z,2973
2023-01-01T12:43:17.645Z,2960
2023-01-01T12:44:33.887Z,2933
2023-01-01T12:45:50.125Z,2888
2023-01-01T12:47:06.379Z,2859
2023-01-01T12:48:22.600Z,2868
2023-01-01T12:49:38.842Z,2895
2023-01-01T12:50:55.098Z,2891
2023-01-01T12:52:11.332Z,2877
2023-01-01T12:53:27.562Z,2834
2023-01-01T12:54:43.803Z,2820
2023-01-01T12:56:00.045Z,2777
2023-01-01T12:57:15.302Z,2724
2023-01-01T12:58:31.545Z,2699
2023-01-01T12:59:47.781Z,2673
2023-01-01T13:01:04.035Z,2639
2023-01-01T13:02:20.273Z,2653
2023-01-01T13:03:36.499Z,2706
2023-01-01T13:06:08.979Z,2813
2023-01-01T13:07:25.222Z,2842
2023-01-01T13:08:41.463Z,2839
2023-01-01T13:09:57.714Z,2728
2023-01-01T13:11:13.951Z,2641
2023-01-01T13:12:30.174Z,2584
2023-01-01T13:13:45.435Z,2558
2023-01-01T13:15:01.677Z,2554
2023-01-01T13:16:17.923Z,2548
2023-01-01T13:17:34.165Z,2530
2023-01-01T13:18:50.398Z,2499
2023-01-01T13:20:06.650Z,2457
2023-01-01T13:21:22.880Z,2416
2023-01-01T13:22:39.111Z,2378
2023-01-01T13:23:55.353Z,2316
2023-01-01T13:25:11.598Z,2286
2023-01-01T13:26:27.831Z,2286
2023-01-01T13:27:44.078Z,2245
2023-01-01T13:29:00.315Z,2151
2023-01-01T13:30:16.549Z,2049
2023-01-01T13:31:31.810Z,1962
2023-01-01T13:32:48.061Z,1932
2023-01-01T13:34:04.304Z,1914
2023-01-01T13:35:20.538Z,1927
2023-01-01T13:36:36.766Z,1895
2023-01-01T13:37:53.011Z,1930
2023-01-01T13:39:09.248Z,1995
2023-01-01T13:40:25.505Z,2011
2023-01-01T13:41:41.734Z,2044
2023-01-01T13:42:57.978Z,2072
2023-01-01T13:44:14.215Z,2081
2023-01-01T13:45:30.456Z,2094
2023-01-01T13:46:46.687Z,2002
2023-01-01T13:49:18.199Z,1758
2023-01-01T13:50:34.437Z,1680
2023-01-01T13:51:50.671Z,1680
2023-01-01T13:53:06.914Z,1630
2023-01-01T13:54:22.178Z,1486
2023-01-01T13:55:38.408Z,1378
2023-01-01T13:56:54.656Z,1244
2023-01-01T13:58:10.882Z,1174
2023-01-01T13:59:27.133Z,1295
2023-01-01T14:01:59.608Z,1176
2023-01-01T14:03:15.856Z,1020
2023-01-01T14:04:32.098Z,1089
2023-01-01T14:05:48.338Z,957
2023-01-01T14:07:04.558Z,1100
2023-01-01T14:08:20.804Z,1194
2023-01-01T14:09:37.048Z,1271
2023-01-01T14:10:52.298Z,1230
2023-01-01T14:12:08.541Z,1146
2023-01-01T14:13:24.785Z,1189
2023-01-01T14:14:41.028Z,1206
2023-01-01T14:15:57.270Z,1181
2023-01-01T14:17:13.509Z,1165
2023-01-01T14:18:29.740Z,1120
2023-01-01T14:19:45.985Z,1057
2023-01-01T14:21:02.223Z,1029
2023-01-01T14:22:18.471Z,971
2023-01-01T14:23:34.694Z,892
2023-01-01T14:24:50.938Z,817
2023-01-01T14:26:07.182Z,732
2023-01-01T14:27:22.436Z,656
2023-01-01T14:28:38.683Z,589
2023-01-01T14:29:54.910Z,563
2023-01-01T14:31:11.161Z,664
2023-01-01T14:32:27.404Z,717
2023-01-01T14:33:43.636Z,670
2023-01-01T14:34:59.869Z,648
2023-01-01T14:36:16.122Z,637
2023-01-01T14:37:32.355Z,623
2023-01-01T14:38:48.591Z,601
2023-01-01T14:40:04.840Z,566
2023-01-01T14:41:21.080Z,526
2023-01-01T14:42:37.310Z,491
2023-01-01T14:43:52.579Z,448
2023-01-01T14:45:08.814Z,396
2023-01-01T14:46:25.047Z,380
2023-01-01T14:47:41.288Z,363
2023-01-01T14:48:57.540Z,322
2023-01-01T14:50:13.763Z,309
2023-01-01T14:51:30.018Z,318
2023-01-01T14:52:46.257Z,329
2023-01-01T14:54:02.481Z,327
2023-01-01T14:55:18.725Z,317
2023-01-01T14:56:34.965Z,292
2023-01-01T14:57:51.205Z,266
2023-01-01T14:59:07.441Z,238
2023-01-01T15:00:22.713Z,213
2023-01-01T15:01:38.942Z,189
2023-01-01T15:02:55.181Z,159
2023-01-01T15:04:11.417Z,139
2023-01-01T15:05:27.673Z,116
2023-01-01T15:06:43.917Z,99
2023-01-01T15:08:00.136Z,84
2023-01-01T15:09:16.393Z,75
2023-01-01T15:10:31.638Z,58
2023-01-01T15:11:46.901Z,56
2023-01-01T15:13:03.141Z,52
2023-01-01T15:15:35.627Z,39
2023-01-01T15:16:51.868Z,39
2023-01-01T15:18:08.115Z,37
2023-01-01T15:20:40.588Z,32
2023-01-01T15:21:55.846Z,29
2023-01-01T15:23:11.093Z,28
2023-01-01T15:24:27.340Z,27
2023-01-01T15:25:43.574Z,22
2023-01-01T15:26:59.813Z,17
2023-01-01T15:28:16.064Z,15
2023-01-01T15:29:32.303Z,12
2023-01-01T15:30:48.544Z,10
2023-01-01T15:32:04.778Z,9
2023-01-01T15:33:21.021Z,6
2023-01-01T15:34:37.251Z,5
2023-01-01T15:35:53.489Z,3
2023-01-01T15:37:09.731Z,3
2023-01-01T15:38:25.990Z,2
2023-01-01T15:39:41.242Z,2
2023-01-01T15:40:57.471Z,2
2023-01-01T15:42:13.711Z,1
2023-01-01T15:43:29.951Z,1
2023-01-01T15:44:46.192Z,1
2023-01-01T15:46:02.498Z,0
2023-01-01T15:47:18.773Z,0
2023-01-01T15:48:35.084Z,0
2023-01-01T15:49:51.372Z,0
2023-01-01T15:51:07.665Z,0
2023-01-01T15:52:23.964Z,0
2023-01-01T15:53:40.262Z,0
2023-01-01T15:54:56.554Z,0
2023-01-01T15:56:11.849Z,0
2023-01-01T15:58:44.434Z,0
2023-01-01T16:00:00.737Z,0
2023-01-01T16:01:17.031Z,0
2023-01-01T16:02:33.333Z,0
2023-01-01T16:03:49.618Z,0
2023-01-01T16:05:05.912Z,0
2023-01-01T16:06:22.201Z,0
2023-01-01T16:07:38.506Z,0
2023-01-01T16:08:54.793Z,0
2023-01-01T16:10:11.079Z,0
2023-01-01T16:11:27.380Z,0
2023-01-01T16:12:43.683Z,0
2023-01-01T16:13:58.993Z,0
2023-01-01T16:15:15.272Z,0
2023-01-01T16:16:31.576Z,0
2023-01-01T16:17:47.865Z,0
2023-01-01T16:19:04.168Z,0
2023-01-01T16:20:20.464Z,0
2023-01-01T16:21:36.754Z,0
2023-01-01T16:22:53.048Z,0
2023-01-01T16:24:09.345Z,0
2023-01-01T16:25:25.642Z,0
2023-01-01T16:26:41.920Z,0
2023-01-01T16:27:58.216Z,0
2023-01-01T16:29:14.511Z,0
2023-01-01T16:30:29.824Z,0
2023-01-01T16:31:46.125Z,0
2023-01-01T16:33:02.411Z,0
2023-01-01T16:34:18.707Z,0
2023-01-01T16:35:35.007Z,0
2023-01-01T16:36:51.294Z,0
2023-01-01T16:38:07.585Z,0
2023-01-01T16:39:23.871Z,0
2023-01-01T16:40:40.167Z,0
2023-01-01T16:41:56.459Z,0
2023-01-01T16:43:12.760Z,0
2023-01-01T16:44:29.053Z,0
2023-01-01T16:45:45.347Z,0
2023-01-01T16:47:00.653Z,0
2023-01-01T16:48:16.959Z,0
2023-01-01T16:49:33.240Z,0
2023-01-01T16:50:49.545Z,0
2023-01-01T16:52:05.827Z,0
2023-01-01T16:53:22.133Z,0
2023-01-01T16:54:38.412Z,0
2023-01-01T16:55:54.729Z,0
2023-01-01T16:57:11.019Z,0
2023-01-01T16:58:27.298Z,0
2023-01-01T16:59:43.590Z,0
2023-01-01T17:00:59.883Z,0
2023-01-01T17:02:16.178Z,0
2023-01-01T17:03:31.486Z,0
2023-01-01T17:04:47.787Z,0
2023-01-01T17:06:04.079Z,0
2023-01-01T17:07:20.382Z,0
2023-01-01T17:08:36.672Z,0
2023-01-01T17:09:52.966Z,0
2023-01-01T17:11:09.256Z,0
2023-01-01T17:12:25.544Z,0
2023-01-01T17:13:41.846Z,0
2023-01-01T17:14:58.141Z,0
2023-01-01T17:16:14.436Z,0
2023-01-01T17:17:30.724Z,0
2023-01-01T17:18:46.981Z,1
2023-01-01T17:20:02.297Z,0
2023-01-01T17:21:18.591Z,0
2023-01-01T17:22:34.887Z,0
2023-01-01T17:23:51.181Z,0
2023-01-01T17:25:07.475Z,0
2023-01-01T17:26:23.763Z,0
2023-01-01T17:27:40.049Z,0
2023-01-01T17:28:56.344Z,0
2023-01-01T17:30:12.642Z,0
2023-01-01T17:31:28.927Z,0
2023-01-01T17:32:45.236Z,0
2023-01-01T17:34:01.525Z,0
2023-01-01T17:35:17.809Z,0
2023-01-01T17:36:33.129Z,0
2023-01-01T17:37:49.421Z,0
2023-01-01T17:39:05.716Z,0
2023-01-01T17:40:22.003Z,0
2023-01-01T17:41:38.298Z,0
2023-01-01T17:42:54.599Z,0
2023-01-01T17:44:10.886Z,0
2023-01-01T17:45:27.182Z,0
2023-01-01T17:46:43.466Z,0
2023-01-01T17:47:59.768Z,0
2023-01-01T17:49:16.056Z,0
2023-01-01T17:50:32.359Z,0
2023-01-01T17:51:48.651Z,0
2023-01-01T17:53:03.967Z,0
2023-01-01T17:54:20.258Z,0
2023-01-01T17:55:36.546Z,0
2023-01-01T17:56:52.844Z,0
2023-01-01T17:58:09.139Z,0
2023-01-01T17:59:25.421Z,0
2023-01-01T18:00:41.727Z,0
2023-01-01T18:01:58.027Z,0
2023-01-01T18:03:14.303Z,0
2023-01-01T18:04:30.603Z,0
2023-01-01T18:05:46.891Z,0
2023-01-01T18:07:03.189Z,0
2023-01-01T18:08:19.484Z,0
2023-01-01T18:09:34.802Z,0
2023-01-01T18:10:51.105Z,0
2023-01-01T18:13:23.000Z,0
2023-01-01T18:14:39.981Z,0
2023-01-01T18:15:56.265Z,0
2023-01-01T18:17:12.561Z,0
2023-01-01T18:18:28.851Z,0
2023-01-01T18:19:45.164Z,0
2023-01-01T18:21:01.454Z,0
2023-01-01T18:22:17.748Z,0
2023-01-01T18:23:34.036Z,0
2023-01-01T18:24:50.338Z,0
2023-01-01T18:26:05.643Z,0
2023-01-01T18:27:21.937Z,0
2023-01-01T18:28:38.227Z,0
2023-01-01T18:29:54.521Z,0
2023-01-01T18:31:10.824Z,0
2023-01-01T18:32:27.105Z,0